createdAt,value
2018-11-21T00:00:52.275Z,97381.06
2018-11-21T00:01:55.537Z,97380.80
2018-11-21T00:02:58.454Z,97384.56
2018-11-21T00:04:00.940Z,97382.58
2018-11-21T00:05:03.559Z,97386.09
2018-11-21T00:06:06.055Z,97387.73
2018-11-21T00:07:08.842Z,97382.33
2018-11-21T00:08:11.612Z,97375.05
2018-11-21T00:09:14.237Z,97379.52
2018-11-21T00:10:16.726Z,97374.41
2018-11-21T00:11:19.246Z,97376.61
2018-11-21T00:12:21.793Z,97382.42
2018-11-21T00:13:25.863Z,97375.66
2018-11-21T00:14:28.366Z,97374.05
2018-11-21T00:15:31.148Z,97370.59
2018-11-21T00:16:33.889Z,97380.47
2018-11-21T00:17:37.445Z,97375.84
2018-11-21T00:18:40.353Z,97376.66
2018-11-21T00:19:43.366Z,97382.34
2018-11-21T00:20:46.893Z,97393.87
2018-11-21T00:21:49.520Z,97383.65
2018-11-21T00:22:52.095Z,97393.27
2018-11-21T00:23:54.573Z,97391.70
2018-11-21T00:24:57.124Z,97392.05
2018-11-21T00:26:00.426Z,97400.97
2018-11-21T00:27:03.223Z,97390.45
2018-11-21T00:28:05.707Z,97396.03
2018-11-21T00:29:08.249Z,97391.19
2018-11-21T00:30:11.969Z,97386.37
2018-11-21T00:31:14.446Z,97395.52
2018-11-21T00:32:24.969Z,97392.83
2018-11-21T00:33:27.454Z,97390.45
2018-11-21T00:34:29.976Z,97389.95
2018-11-21T00:35:32.853Z,97397.42
2018-11-21T00:36:35.426Z,97402.50
2018-11-21T00:37:40.116Z,97404.36
2018-11-21T00:38:50.425Z,97410.03
2018-11-21T00:39:53.685Z,97407.42
2018-11-21T00:40:56.189Z,97410.64
2018-11-21T00:41:58.778Z,97409.03
2018-11-21T00:43:01.568Z,97417.36
2018-11-21T00:44:04.357Z,97414.10
2018-11-21T00:45:08.577Z,97426.45
2018-11-21T00:46:11.069Z,97427.80
2018-11-21T00:47:13.584Z,97432.62
2018-11-21T00:48:16.189Z,97426.68
2018-11-21T00:49:18.679Z,97425.11
2018-11-21T00:50:21.166Z,97422.69
2018-11-21T00:51:24.104Z,97428.50
2018-11-21T00:52:26.601Z,97427.95
2018-11-21T00:53:30.174Z,97430.41
2018-11-21T00:54:33.695Z,97432.83
2018-11-21T00:55:36.232Z,97427.20
2018-11-21T00:56:38.724Z,97428.55
2018-11-21T00:57:46.915Z,97433.13
2018-11-21T00:58:50.601Z,97426.12
2018-11-21T00:59:53.074Z,97427.42
2018-11-21T01:00:55.570Z,97424.48
2018-11-21T01:01:58.088Z,97429.02
2018-11-21T01:03:00.667Z,97436.27
2018-11-21T01:04:03.555Z,97430.59
2018-11-21T01:05:06.119Z,97433.02
2018-11-21T01:06:09.008Z,97434.63
2018-11-21T01:07:11.484Z,97430.64
2018-11-21T01:08:13.997Z,97434.67
2018-11-21T01:09:16.714Z,97441.91
2018-11-21T01:10:19.499Z,97442.69
2018-11-21T01:11:22.005Z,97440.56
2018-11-21T01:12:24.494Z,97445.11
2018-11-21T01:13:27.938Z,97447.80
2018-11-21T01:14:30.509Z,97445.89
2018-11-21T01:15:32.999Z,97452.62
2018-11-21T01:16:35.807Z,97447.23
2018-11-21T01:17:38.389Z,97454.26
2018-11-21T01:18:40.902Z,97459.93
2018-11-21T01:19:43.392Z,97454.30
2018-11-21T01:20:45.911Z,97461.27
2018-11-21T01:21:48.423Z,97450.83
2018-11-21T01:22:52.293Z,97459.45
2018-11-21T01:23:54.797Z,97456.77
2018-11-21T01:24:57.279Z,97455.98
2018-11-21T01:25:59.771Z,97459.48
2018-11-21T01:27:02.293Z,97447.95
2018-11-21T01:28:04.841Z,97447.95
2018-11-21T01:29:08.105Z,97448.18
2018-11-21T01:30:10.616Z,97449.52
2018-11-21T01:31:15.795Z,97451.94
2018-11-21T01:32:18.305Z,97455.67
2018-11-21T01:33:20.983Z,97458.66
2018-11-21T01:34:23.588Z,97457.09
2018-11-21T01:35:26.566Z,97461.13
2018-11-21T01:36:29.089Z,97465.20
2018-11-21T01:37:31.668Z,97472.44
2018-11-21T01:38:34.598Z,97476.47
2018-11-21T01:39:37.524Z,97473.26
2018-11-21T01:40:40.049Z,97469.49
2018-11-21T01:41:44.547Z,97473.00
2018-11-21T01:42:48.008Z,97470.57
2018-11-21T01:43:50.573Z,97465.23
2018-11-21T01:44:53.097Z,97460.42
2018-11-21T01:45:55.765Z,97466.05
2018-11-21T01:46:58.305Z,97462.28
2018-11-21T01:48:01.489Z,97465.46
2018-11-21T01:49:04.013Z,97463.92
2018-11-21T01:50:06.783Z,97456.69
2018-11-21T01:51:09.694Z,97464.16
2018-11-21T01:52:12.794Z,97468.22
2018-11-21T01:53:15.524Z,97460.20
2018-11-21T01:54:18.629Z,97466.61
2018-11-21T01:55:21.537Z,97461.02
2018-11-21T01:56:27.686Z,97456.73
2018-11-21T01:57:30.159Z,97468.89
2018-11-21T01:58:33.023Z,97468.07
2018-11-21T01:59:35.764Z,97470.52
2018-11-21T02:00:39.028Z,97460.80
2018-11-21T02:01:41.522Z,97469.89
2018-11-21T02:02:45.750Z,97466.73
2018-11-21T02:03:46.719Z,97476.13
2018-11-21T02:04:49.292Z,97467.31
2018-11-21T02:05:53.433Z,97464.41
2018-11-21T02:06:58.265Z,97467.09
2018-11-21T02:08:01.260Z,97481.08
2018-11-21T02:09:17.310Z,97477.38
2018-11-21T02:10:18.653Z,97482.20
2018-11-21T02:11:21.364Z,97473.88
2018-11-21T02:12:24.096Z,97473.09
2018-11-21T02:13:28.656Z,97470.14
2018-11-21T02:14:36.339Z,97461.59
2018-11-21T02:15:38.917Z,97466.67
2018-11-21T02:16:41.591Z,97468.84
2018-11-21T02:17:44.329Z,97472.05
2018-11-21T02:18:47.065Z,97465.63
2018-11-21T02:19:50.214Z,97465.92
2018-11-21T02:20:53.185Z,97471.30
2018-11-21T02:21:56.326Z,97473.72
2018-11-21T02:22:58.839Z,97477.25
2018-11-21T02:24:01.463Z,97473.48
2018-11-21T02:25:04.512Z,97478.37
2018-11-21T02:26:07.520Z,97470.08
2018-11-21T02:27:10.177Z,97471.16
2018-11-21T02:28:15.469Z,97471.72
2018-11-21T02:29:18.093Z,97471.45
2018-11-21T02:30:20.576Z,97470.97
2018-11-21T02:31:24.173Z,97465.10
2018-11-21T02:32:27.383Z,97468.05
2018-11-21T02:33:30.010Z,97459.20
2018-11-21T02:34:32.510Z,97471.81
2018-11-21T02:35:35.226Z,97474.50
2018-11-21T02:36:37.953Z,97473.98
2018-11-21T02:37:40.630Z,97475.88
2018-11-21T02:38:45.222Z,97475.64
2018-11-21T02:39:47.898Z,97477.02
2018-11-21T02:40:50.588Z,97482.91
2018-11-21T02:41:53.902Z,97483.98
2018-11-21T02:42:56.585Z,97491.55
2018-11-21T02:43:59.085Z,97490.99
2018-11-21T02:45:02.061Z,97495.31
2018-11-21T02:46:04.595Z,97489.94
2018-11-21T02:47:07.227Z,97490.50
2018-11-21T02:48:09.890Z,97491.55
2018-11-21T02:49:12.397Z,97499.63
2018-11-21T02:50:14.985Z,97508.47
2018-11-21T02:51:17.809Z,97517.59
2018-11-21T02:52:20.426Z,97518.70
2018-11-21T02:53:23.052Z,97516.02
2018-11-21T02:54:25.612Z,97530.52
2018-11-21T02:55:28.108Z,97527.84
2018-11-21T02:56:30.626Z,97520.84
2018-11-21T02:57:34.688Z,97525.39
2018-11-21T02:58:37.201Z,97527.84
2018-11-21T02:59:40.147Z,97525.70
2018-11-21T03:00:42.844Z,97526.55
2018-11-21T03:01:45.819Z,97531.92
2018-11-21T03:02:48.361Z,97527.39
2018-11-21T03:03:51.273Z,97524.42
2018-11-21T03:04:53.897Z,97526.58
2018-11-21T03:05:56.404Z,97522.76
2018-11-21T03:06:58.890Z,97522.27
2018-11-21T03:08:02.442Z,97520.42
2018-11-21T03:09:04.921Z,97513.48
2018-11-21T03:10:07.902Z,97511.64
2018-11-21T03:11:10.376Z,97500.37
2018-11-21T03:12:12.887Z,97504.16
2018-11-21T03:13:15.517Z,97510.58
2018-11-21T03:14:18.036Z,97515.74
2018-11-21T03:15:20.687Z,97519.48
2018-11-21T03:16:23.530Z,97525.11
2018-11-21T03:17:26.009Z,97537.20
2018-11-21T03:18:28.582Z,97547.94
2018-11-21T03:19:31.072Z,97555.44
2018-11-21T03:20:33.985Z,97555.19
2018-11-21T03:21:36.506Z,97553.59
2018-11-21T03:22:39.852Z,97546.61
2018-11-21T03:23:42.432Z,97538.56
2018-11-21T03:24:44.930Z,97539.07
2018-11-21T03:25:47.741Z,97540.44
2018-11-21T03:26:50.651Z,97541.54
2018-11-21T03:27:53.147Z,97546.12
2018-11-21T03:28:56.222Z,97549.09
2018-11-21T03:29:58.751Z,97553.11
2018-11-21T03:31:01.297Z,97548.53
2018-11-21T03:32:03.796Z,97552.30
2018-11-21T03:33:06.276Z,97557.14
2018-11-21T03:34:08.918Z,97552.27
2018-11-21T03:35:11.897Z,97546.36
2018-11-21T03:36:14.408Z,97549.52
2018-11-21T03:37:16.930Z,97549.30
2018-11-21T03:38:19.410Z,97561.37
2018-11-21T03:39:23.111Z,97563.82
2018-11-21T03:40:25.782Z,97563.31
2018-11-21T03:41:30.293Z,97565.78
2018-11-21T03:42:32.786Z,97561.77
2018-11-21T03:43:35.332Z,97561.77
2018-11-21T03:44:37.817Z,97568.19
2018-11-21T03:45:40.393Z,97560.13
2018-11-21T03:46:43.239Z,97559.63
2018-11-21T03:47:46.279Z,97569.82
2018-11-21T03:48:48.769Z,97568.74
2018-11-21T03:49:54.664Z,97558.88
2018-11-21T03:50:57.506Z,97560.77
2018-11-21T03:52:00.073Z,97567.76
2018-11-21T03:53:02.586Z,97564.26
2018-11-21T03:54:05.622Z,97566.67
2018-11-21T03:55:08.719Z,97566.69
2018-11-21T03:56:11.281Z,97571.27
2018-11-21T03:57:13.980Z,97566.45
2018-11-21T03:58:16.610Z,97567.27
2018-11-21T03:59:19.088Z,97573.42
2018-11-21T04:00:22.300Z,97580.14
2018-11-21T04:01:24.879Z,97576.09
2018-11-21T04:02:27.690Z,97591.41
2018-11-21T04:03:30.573Z,97579.64
2018-11-21T04:04:33.051Z,97590.09
2018-11-21T04:05:35.590Z,97583.94
2018-11-21T04:06:46.303Z,97591.74
2018-11-21T04:07:46.411Z,97594.42
2018-11-21T04:09:01.427Z,97595.22
2018-11-21T04:10:04.645Z,97597.34
2018-11-21T04:11:07.121Z,97597.88
2018-11-21T04:12:09.683Z,97599.23
2018-11-21T04:13:12.588Z,97592.55
2018-11-21T04:14:15.062Z,97586.38
2018-11-21T04:15:17.573Z,97587.70
2018-11-21T04:16:20.590Z,97575.66
2018-11-21T04:17:23.174Z,97593.36
2018-11-21T04:18:25.667Z,97592.30
2018-11-21T04:19:28.938Z,97593.39
2018-11-21T04:20:31.892Z,97593.95
2018-11-21T04:21:35.415Z,97597.70
2018-11-21T04:22:38.014Z,97602.78
2018-11-21T04:23:40.905Z,97608.96
2018-11-21T04:24:43.393Z,97601.98
2018-11-21T04:25:46.220Z,97596.61
2018-11-21T04:26:48.895Z,97606.22
2018-11-21T04:27:51.713Z,97612.36
2018-11-21T04:28:54.199Z,97603.81
2018-11-21T04:29:56.681Z,97606.77
2018-11-21T04:30:59.190Z,97617.22
2018-11-21T04:32:02.403Z,97620.72
2018-11-21T04:33:05.015Z,97624.72
2018-11-21T04:34:07.650Z,97617.77
2018-11-21T04:35:10.902Z,97622.08
2018-11-21T04:36:13.858Z,97623.16
2018-11-21T04:37:17.209Z,97621.26
2018-11-21T04:38:21.686Z,97617.52
2018-11-21T04:39:24.614Z,97618.59
2018-11-21T04:40:27.194Z,97615.67
2018-11-21T04:41:29.739Z,97618.59
2018-11-21T04:42:34.248Z,97616.73
2018-11-21T04:43:37.014Z,97615.93
2018-11-21T04:44:40.117Z,97615.95
2018-11-21T04:45:42.936Z,97618.11
2018-11-21T04:46:45.457Z,97609.52
2018-11-21T04:47:47.996Z,97616.78
2018-11-21T04:48:50.480Z,97612.20
2018-11-21T04:49:53.045Z,97607.67
2018-11-21T04:50:56.464Z,97607.67
2018-11-21T04:51:59.091Z,97614.10
2018-11-21T04:53:01.609Z,97610.60
2018-11-21T04:54:04.115Z,97609.01
2018-11-21T04:55:06.696Z,97609.00
2018-11-21T04:56:09.255Z,97611.47
2018-11-21T04:57:12.072Z,97615.98
2018-11-21T04:58:14.555Z,97613.56
2018-11-21T04:59:17.103Z,97618.16
2018-11-21T05:00:19.699Z,97617.60
2018-11-21T05:01:22.402Z,97616.25
2018-11-21T05:02:25.457Z,97618.14
2018-11-21T05:03:28.515Z,97615.19
2018-11-21T05:04:31.134Z,97618.38
2018-11-21T05:05:33.661Z,97619.70
2018-11-21T05:06:36.364Z,97619.18
2018-11-21T05:07:38.973Z,97623.98
2018-11-21T05:08:41.498Z,97624.25
2018-11-21T05:09:44.570Z,97625.63
2018-11-21T05:10:47.190Z,97625.91
2018-11-21T05:11:49.954Z,97629.39
2018-11-21T05:12:52.542Z,97631.03
2018-11-21T05:13:55.422Z,97633.17
2018-11-21T05:14:58.288Z,97638.00
2018-11-21T05:16:01.443Z,97635.84
2018-11-21T05:17:03.972Z,97637.17
2018-11-21T05:18:08.613Z,97636.65
2018-11-21T05:19:11.154Z,97637.72
2018-11-21T05:20:13.633Z,97637.16
2018-11-21T05:21:16.197Z,97639.03
2018-11-21T05:22:19.041Z,97633.40
2018-11-21T05:23:21.550Z,97632.09
2018-11-21T05:24:26.686Z,97630.25
2018-11-21T05:25:29.179Z,97635.86
2018-11-21T05:26:31.742Z,97631.84
2018-11-21T05:27:34.237Z,97635.04
2018-11-21T05:28:37.163Z,97643.87
2018-11-21T05:29:39.651Z,97646.31
2018-11-21T05:30:42.160Z,97654.11
2018-11-21T05:31:44.755Z,97654.14
2018-11-21T05:32:47.261Z,97655.72
2018-11-21T05:33:49.823Z,97657.05
2018-11-21T05:34:52.360Z,97653.03
2018-11-21T05:35:54.897Z,97652.80
2018-11-21T05:36:57.453Z,97647.68
2018-11-21T05:38:00.046Z,97651.97
2018-11-21T05:39:02.541Z,97644.50
2018-11-21T05:40:05.519Z,97650.14
2018-11-21T05:41:08.010Z,97648.53
2018-11-21T05:42:10.501Z,97650.12
2018-11-21T05:43:13.385Z,97648.21
2018-11-21T05:44:15.946Z,97652.23
2018-11-21T05:45:18.716Z,97651.45
2018-11-21T05:46:24.400Z,97652.22
2018-11-21T05:47:26.900Z,97654.37
2018-11-21T05:48:32.473Z,97653.83
2018-11-21T05:49:35.531Z,97652.75
2018-11-21T05:50:38.362Z,97649.24
2018-11-21T05:51:40.876Z,97647.11
2018-11-21T05:52:46.674Z,97652.16
2018-11-21T05:53:49.149Z,97644.97
2018-11-21T05:54:55.546Z,97655.45
2018-11-21T05:55:58.042Z,97653.86
2018-11-21T05:57:03.215Z,97652.53
2018-11-21T05:58:05.758Z,97654.14
2018-11-21T05:59:08.672Z,97648.80
2018-11-21T06:00:11.960Z,97654.16
2018-11-21T06:01:14.518Z,97654.69
2018-11-21T06:02:17.245Z,97659.52
2018-11-21T06:03:19.743Z,97656.62
2018-11-21T06:04:22.595Z,97665.42
2018-11-21T06:05:25.602Z,97666.77
2018-11-21T06:06:28.163Z,97669.45
2018-11-21T06:07:30.666Z,97670.52
2018-11-21T06:08:33.662Z,97670.78
2018-11-21T06:09:36.154Z,97663.02
2018-11-21T06:10:38.698Z,97660.87
2018-11-21T06:11:42.533Z,97666.52
2018-11-21T06:12:45.176Z,97664.39
2018-11-21T06:13:47.677Z,97664.38
2018-11-21T06:14:51.420Z,97670.52
2018-11-21T06:15:54.840Z,97666.80
2018-11-21T06:16:57.794Z,97665.16
2018-11-21T06:18:00.780Z,97670.80
2018-11-21T06:19:05.403Z,97668.14
2018-11-21T06:20:08.256Z,97663.30
2018-11-21T06:21:11.169Z,97670.47
2018-11-21T06:22:13.755Z,97676.12
2018-11-21T06:23:16.252Z,97671.33
2018-11-21T06:24:19.237Z,97670.25
2018-11-21T06:25:21.785Z,97668.91
2018-11-21T06:26:24.391Z,97667.85
2018-11-21T06:27:26.966Z,97667.86
2018-11-21T06:28:29.996Z,97672.16
2018-11-21T06:29:33.874Z,97676.44
2018-11-21T06:44:17.869Z,97693.30
2018-11-21T06:45:20.460Z,97697.86
2018-11-21T06:46:23.315Z,97701.60
2018-11-21T06:47:26.308Z,97700.81
2018-11-21T06:48:31.187Z,97705.88
2018-11-21T06:49:34.131Z,97705.07
2018-11-21T06:50:37.749Z,97708.57
2018-11-21T06:51:56.147Z,97715.55
2018-11-21T06:52:59.177Z,97723.05
2018-11-21T06:54:01.841Z,97727.33
2018-11-21T06:55:04.347Z,97727.85
2018-11-21T06:56:10.979Z,97727.60
2018-11-21T06:57:13.473Z,97731.34
2018-11-21T06:58:15.952Z,97724.36
2018-11-21T06:59:24.334Z,97726.50
2018-11-21T07:00:26.963Z,97730.27
2018-11-21T07:01:29.466Z,97730.78
2018-11-21T07:02:34.723Z,97732.38
2018-11-21T07:03:37.335Z,97738.02
2018-11-21T07:04:39.999Z,97743.66
2018-11-21T07:05:42.529Z,97748.48
2018-11-21T07:06:45.103Z,97747.41
2018-11-21T07:07:47.621Z,97753.05
2018-11-21T07:08:50.481Z,97755.72
2018-11-21T07:09:53.078Z,97758.64
2018-11-21T07:10:56.692Z,97761.08
2018-11-21T07:12:00.190Z,97763.76
2018-11-21T07:13:03.153Z,97770.19
2018-11-21T07:14:07.253Z,97775.55
2018-11-21T07:15:09.027Z,97772.05
2018-11-21T07:16:12.596Z,97773.13
2018-11-21T07:17:15.154Z,97768.05
2018-11-21T07:18:19.530Z,97771.23
2018-11-21T07:19:31.892Z,97773.92
2018-11-21T07:20:34.485Z,97770.97
2018-11-21T07:21:38.458Z,97771.52
2018-11-21T07:22:44.903Z,97774.47
2018-11-21T07:23:47.446Z,97774.72
2018-11-21T07:24:50.140Z,97766.44
2018-11-21T07:25:54.273Z,97767.52
2018-11-21T07:26:56.725Z,97761.88
2018-11-21T07:28:02.058Z,97766.69
2018-11-21T07:29:04.597Z,97773.94
2018-11-21T07:30:09.669Z,97780.91
2018-11-21T07:31:12.445Z,97785.47
2018-11-21T07:32:21.108Z,97789.47
2018-11-21T07:33:24.020Z,97792.13
2018-11-21T07:34:26.545Z,97790.23
2018-11-21T07:35:30.366Z,97794.01
2018-11-21T07:36:32.442Z,97794.55
2018-11-21T07:37:34.969Z,97796.95
2018-11-21T07:38:37.491Z,97805.25
2018-11-21T07:39:43.026Z,97803.91
2018-11-21T07:40:45.960Z,97805.25
2018-11-21T07:41:48.548Z,97803.62
2018-11-21T07:42:51.453Z,97798.23
2018-11-21T07:43:54.761Z,97807.07
2018-11-21T07:44:57.626Z,97807.34
2018-11-21T07:46:00.551Z,97806.77
2018-11-21T07:47:03.718Z,97802.46
2018-11-21T07:48:06.263Z,97807.29
2018-11-21T07:49:09.941Z,97804.35
2018-11-21T07:50:17.491Z,97803.80
2018-11-21T07:51:20.929Z,97805.39
2018-11-21T07:52:27.127Z,97812.08
2018-11-21T07:53:30.108Z,97811.28
2018-11-21T07:54:32.606Z,97812.08
2018-11-21T07:55:35.219Z,97813.95
2018-11-21T07:56:37.740Z,97817.42
2018-11-21T07:57:47.903Z,97823.87
2018-11-21T07:58:54.119Z,97814.23
2018-11-21T07:59:56.592Z,97817.76
2018-11-21T08:01:05.665Z,97819.63
2018-11-21T08:02:18.484Z,97822.06
2018-11-21T08:03:21.688Z,97823.65
2018-11-21T08:04:29.445Z,97837.06
2018-11-21T08:05:34.230Z,97840.84
2018-11-21T08:06:55.704Z,97845.41
2018-11-21T08:08:04.669Z,97843.79
2018-11-21T08:09:29.157Z,97849.97
2018-11-21T08:10:51.537Z,97838.17
2018-11-21T08:12:22.092Z,97838.97
2018-11-21T08:14:03.276Z,97839.75
2018-11-21T08:15:23.092Z,97840.78
2018-11-21T08:16:47.466Z,97842.94
2018-11-21T08:18:14.674Z,97838.64
2018-11-21T08:19:34.719Z,97839.70
2018-11-21T08:21:01.902Z,97846.92
2018-11-21T08:22:22.347Z,97838.36
2018-11-21T08:23:56.120Z,97837.57
2018-11-21T08:25:26.301Z,97841.33
2018-11-21T08:26:46.465Z,97841.31
2018-11-21T08:28:11.010Z,97845.33
2018-11-21T08:29:13.942Z,97850.45
2018-11-21T08:30:16.593Z,97854.21
2018-11-21T08:31:19.113Z,97860.65
2018-11-21T08:32:22.127Z,97857.18
2018-11-21T08:33:24.730Z,97863.09
2018-11-21T08:34:27.643Z,97866.05
2018-11-21T08:35:39.000Z,97864.68
2018-11-21T08:36:41.500Z,97858.77
2018-11-21T08:37:45.407Z,97864.98
2018-11-21T08:38:48.350Z,97860.14
2018-11-21T08:39:51.290Z,97856.39
2018-11-21T08:40:54.440Z,97858.27
2018-11-21T08:41:56.930Z,97855.01
2018-11-21T08:42:59.437Z,97855.81
2018-11-21T08:44:02.010Z,97849.63
2018-11-21T08:45:04.621Z,97851.52
2018-11-21T08:46:07.222Z,97852.82
2018-11-21T08:47:10.236Z,97851.19
2018-11-21T08:48:13.553Z,97855.17
2018-11-21T08:49:16.087Z,97854.39
2018-11-21T08:50:18.681Z,97852.27
2018-11-21T08:51:21.191Z,97858.16
2018-11-21T08:52:23.717Z,97867.00
2018-11-21T08:53:28.947Z,97869.63
2018-11-21T08:54:31.652Z,97869.63
2018-11-21T08:55:34.206Z,97870.16
2018-11-21T08:56:36.710Z,97867.00
2018-11-21T08:57:39.566Z,97867.80
2018-11-21T08:58:42.524Z,97864.31
2018-11-21T08:59:45.658Z,97865.63
2018-11-21T09:00:48.972Z,97870.72
2018-11-21T09:01:51.660Z,97864.81
2018-11-21T09:02:54.440Z,97867.77
2018-11-21T09:03:59.185Z,97869.67
2018-11-21T09:05:01.828Z,97870.45
2018-11-21T09:06:05.311Z,97870.75
2018-11-21T09:07:07.792Z,97866.72
2018-11-21T09:08:10.617Z,97868.59
2018-11-21T09:09:13.833Z,97876.11
2018-11-21T09:10:16.529Z,97883.11
2018-11-21T09:11:20.184Z,97876.41
2018-11-21T09:12:24.390Z,97876.16
2018-11-21T09:13:29.262Z,97881.22
2018-11-21T09:14:31.773Z,97881.77
2018-11-21T09:15:34.310Z,97877.47
2018-11-21T09:16:39.579Z,97879.86
2018-11-21T09:17:42.515Z,97884.94
2018-11-21T09:18:45.293Z,97888.69
2018-11-21T09:19:48.308Z,97881.45
2018-11-21T09:20:50.836Z,97884.94
2018-11-21T09:21:53.463Z,97879.31
2018-11-21T09:22:59.016Z,97879.31
2018-11-21T09:24:02.069Z,97879.59
2018-11-21T09:25:05.186Z,97886.04
2018-11-21T09:26:07.749Z,97879.89
2018-11-21T09:27:12.573Z,97879.09
2018-11-21T09:28:14.753Z,97879.87
2018-11-21T09:29:17.294Z,97883.33
2018-11-21T09:30:21.256Z,97885.19
2018-11-21T09:31:26.405Z,97887.34
2018-11-21T09:32:29.318Z,97886.56
2018-11-21T09:33:34.890Z,97884.97
2018-11-21T09:34:38.337Z,97880.44
2018-11-21T09:35:51.984Z,97876.98
2018-11-21T09:36:53.974Z,97878.06
2018-11-21T09:37:58.236Z,97877.24
2018-11-21T09:39:02.450Z,97879.66
2018-11-21T09:40:05.058Z,97874.29
2018-11-21T09:41:07.568Z,97880.42
2018-11-21T09:42:18.578Z,97887.14
2018-11-21T09:43:21.179Z,97892.51
2018-11-21T09:44:23.673Z,97891.41
2018-11-21T09:45:26.561Z,97899.70
2018-11-21T09:46:38.429Z,97892.95
2018-11-21T09:47:51.069Z,97897.30
2018-11-21T09:48:53.875Z,97897.83
2018-11-21T09:49:56.777Z,97901.85
2018-11-21T09:50:59.279Z,97898.91
2018-11-21T09:52:01.803Z,97905.08
2018-11-21T09:53:04.880Z,97897.02
2018-11-21T09:54:07.811Z,97906.39
2018-11-21T09:55:12.616Z,97905.30
2018-11-21T09:56:15.152Z,97913.36
2018-11-21T09:57:17.669Z,97909.08
2018-11-21T09:58:21.291Z,97909.07
2018-11-21T09:59:24.471Z,97904.25
2018-11-21T10:00:29.752Z,97907.25
2018-11-21T10:01:35.335Z,97913.66
2018-11-21T10:02:38.187Z,97907.73
2018-11-21T10:03:42.218Z,97907.20
2018-11-21T10:04:44.828Z,97901.84
2018-11-21T10:05:50.539Z,97909.61
2018-11-21T10:06:58.710Z,97908.56
2018-11-21T10:08:02.231Z,97906.95
2018-11-21T10:09:10.487Z,97900.48
2018-11-21T10:10:13.410Z,97906.64
2018-11-21T10:11:16.347Z,97902.66
2018-11-21T10:12:19.948Z,97901.86
2018-11-21T10:13:22.726Z,97906.14
2018-11-21T10:14:25.222Z,97902.92
2018-11-21T10:15:27.803Z,97908.56
2018-11-21T10:16:30.425Z,97908.05
2018-11-21T10:17:32.972Z,97920.37
2018-11-21T10:18:36.521Z,97917.69
2018-11-21T10:19:39.318Z,97921.98
2018-11-21T10:20:42.608Z,97915.53
2018-11-21T10:21:45.171Z,97917.93
2018-11-21T10:22:47.698Z,97911.77
2018-11-21T10:23:50.183Z,97925.77
2018-11-21T10:24:52.722Z,97921.73
2018-11-21T10:25:55.843Z,97922.50
2018-11-21T10:26:58.406Z,97931.92
2018-11-21T10:28:01.392Z,97935.71
2018-11-21T10:29:09.229Z,97931.39
2018-11-21T10:30:11.763Z,97937.02
2018-11-21T10:31:14.258Z,97932.73
2018-11-21T10:32:17.166Z,97941.03
2018-11-21T10:33:19.649Z,97943.48
2018-11-21T10:34:24.275Z,97944.00
2018-11-21T10:35:27.697Z,97943.45
2018-11-21T10:36:30.182Z,97941.84
2018-11-21T10:37:33.740Z,97942.63
2018-11-21T10:38:38.209Z,97934.87
2018-11-21T10:39:41.144Z,97934.87
2018-11-21T10:40:43.712Z,97939.45
2018-11-21T10:41:46.702Z,97942.63
2018-11-21T10:42:52.029Z,97942.09
2018-11-21T10:43:54.632Z,97944.52
2018-11-21T10:44:59.295Z,97947.72
2018-11-21T10:46:01.782Z,97950.66
2018-11-21T10:47:04.269Z,97948.23
2018-11-21T10:48:08.354Z,97950.42
2018-11-21T10:49:10.840Z,97951.22
2018-11-21T10:50:13.443Z,97951.52
2018-11-21T10:51:16.272Z,97957.70
2018-11-21T10:52:19.228Z,97945.36
2018-11-21T10:53:21.742Z,97950.70
2018-11-21T10:54:24.299Z,97950.67
2018-11-21T10:55:33.986Z,97943.98
2018-11-21T10:56:37.627Z,97950.17
2018-11-21T10:57:41.764Z,97946.65
2018-11-21T10:58:47.757Z,97946.13
2018-11-21T10:59:50.300Z,97944.79
2018-11-21T11:01:12.770Z,97954.69
2018-11-21T11:02:46.362Z,97949.07
2018-11-21T11:03:51.567Z,97949.05
2018-11-21T11:05:11.626Z,97942.02
2018-11-21T11:06:51.187Z,97947.92
2018-11-21T11:08:29.027Z,97941.70
2018-11-21T11:09:53.975Z,97941.73
2018-11-21T11:11:13.703Z,97943.62
2018-11-21T11:12:41.780Z,97938.77
2018-11-21T11:14:01.597Z,97929.95
2018-11-21T11:15:23.485Z,97938.82
2018-11-21T11:16:44.956Z,97937.80
2018-11-21T11:18:12.614Z,97946.38
2018-11-21T11:19:43.002Z,97942.14
2018-11-21T11:21:11.671Z,97939.45
2018-11-21T11:22:35.044Z,97940.77
2018-11-21T11:23:56.503Z,97943.98
2018-11-21T11:25:33.151Z,97945.03
2018-11-21T11:26:53.268Z,97945.01
2018-11-21T11:28:14.771Z,97940.94
2018-11-21T11:29:32.840Z,97943.34
